Flight Number: EUR1568 Duration: 2:45
Departure: Heraklion (Crete) (LGIR) at 08:00 Distance: 1393 Nm
Arrival: Basel-Mulhouse (LFSB) at 10:45 Equipment: A321

Weather Information
Heraklion Airport , Greece (LGIR) 35-20N 025-11E 39M Nov 19, 2017 - 10:50 PM EST / 2017.11.20 0350 UTC
Wind: from the S (190 degrees) at 7 MPH (6 KT):0
Visibility: greater than 7 mile(s):0
Sky conditions: mostly clear Temperature: 59 F (15 C) Dew Point: 50 F (10 C) Relative Humidity: 72% Pressure (altimeter): 29.83 in. Hg (1010 hPa)
ob: LGIR 200350Z 19006KT 9999 FEW020 15/10 Q1010 NOSIG cycle: 4
Sunrise: 05:03 Sunset: 15:07 (UTC)

Bale-Mulhouse, France (LFSB) 47-36N 007-31E 271M Nov 19, 2017 - 11:00 PM EST / 2017.11.20 0400 UTC
Wind: Variable at 2 MPH (2 KT):0
Visibility: 3 mile(s):0
Sky conditions: partly cloudy Weather: shallow fog Temperature: 28 F (-2 C) Dew Point: 28 F (-2 C) Relative Humidity: 100% Pressure (altimeter): 30.24 in. Hg (1024 hPa)
ob: LFSB 200400Z VRB02KT 6000 R15/1300D MIFG FEW001 SCT200 M02/M02 Q1024 TEMPO 5000 cycle: 4
Sunrise: 06:47 Sunset: 15:44 (UTC)

TAF:2017/11/19 18:47 TAF AMD LFSB 191841Z 1918/2018 23005KT 9999 FEW015 SCT050 PROB40 TEMPO 2000/2007 3000 BCFG FEW002

Previous Pireps for this route
Date Aircraft Flight time Fuel used Landing rate On time
2013-03-23A32103.1327288-278Charter
2016-05-15A32102.4716007-129Yes
(pireps marked green are flown by you)

Route map